Time;durP1;ratioP1;P1;durP2;ratioP2;P2;SDS_P1;SDS_P2;PMS_P1;PMS_P2;Temp;Humidity;BMP_temperature;BMP_pressure;BME280_temperature;BME280_humidity;BME280_pressure;Samples;Min_cycle;Max_cycle;Signal;HPM_P1;HPM_P2
2021/11/22 00:00:23;;;;;;;34.40;20.47;;;;;;;7.91;100.00;101111.72;5131713;27;20204;-65
2021/11/22 00:02:51;;;;;;;31.90;21.03;;;;;;;7.85;100.00;101117.25;5131311;27;20410;-65
2021/11/22 00:05:17;;;;;;;28.90;20.30;;;;;;;7.77;100.00;101117.63;5131705;27;20460;-66
2021/11/22 00:07:42;;;;;;;32.93;20.20;;;;;;;7.71;100.00;101115.34;5145922;27;20411;-63
2021/11/22 00:10:08;;;;;;;30.03;20.13;;;;;;;7.79;100.00;101118.41;5142499;27;20198;-63
2021/11/22 00:12:34;;;;;;;29.60;20.40;;;;;;;7.70;100.00;101116.22;5125289;27;20173;-64
2021/11/22 00:15:03;;;;;;;31.63;20.37;;;;;;;7.73;100.00;101116.09;5130403;27;20435;-65
2021/11/22 00:17:29;;;;;;;29.93;20.13;;;;;;;7.70;100.00;101118.84;5130943;27;20202;-65
2021/11/22 00:19:55;;;;;;;27.77;18.73;;;;;;;7.63;100.00;101120.06;5131392;27;20466;-64
2021/11/22 00:22:20;;;;;;;31.77;21.37;;;;;;;7.61;100.00;101112.31;5132076;27;20966;-64
2021/11/22 00:24:46;;;;;;;32.77;21.87;;;;;;;7.61;100.00;101111.44;5131087;27;20154;-65
2021/11/22 00:27:11;;;;;;;36.40;21.10;;;;;;;7.62;100.00;101118.38;5145118;27;20232;-64
2021/11/22 00:29:37;;;;;;;33.63;20.23;;;;;;;7.64;100.00;101109.56;5145607;27;20635;-63
2021/11/22 00:32:04;;;;;;;32.90;21.30;;;;;;;7.54;100.00;101110.06;5148477;27;20157;-62
2021/11/22 00:34:31;;;;;;;33.17;21.77;;;;;;;7.55;100.00;101111.75;5130566;27;20205;-64
2021/11/22 00:36:56;;;;;;;29.00;21.10;;;;;;;7.53;100.00;101106.59;5137251;27;20828;-62
2021/11/22 00:39:22;;;;;;;31.30;20.73;;;;;;;7.48;100.00;101105.97;5133417;27;20404;-61
2021/11/22 00:41:47;;;;;;;30.60;20.27;;;;;;;7.52;100.00;101099.69;5133455;27;20678;-60
2021/11/22 00:44:14;;;;;;;33.23;21.73;;;;;;;7.48;100.00;101108.56;5128087;27;20225;-61
2021/11/22 00:46:40;;;;;;;36.83;20.93;;;;;;;7.54;100.00;101107.44;5133252;27;20162;-59
2021/11/22 00:49:05;;;;;;;33.83;21.80;;;;;;;7.54;100.00;101105.66;5131137;27;20453;-63
2021/11/22 00:51:31;;;;;;;33.63;21.63;;;;;;;7.48;100.00;101104.22;5130594;27;20185;-62
2021/11/22 00:53:57;;;;;;;32.87;21.70;;;;;;;7.51;100.00;101104.06;5129872;27;20657;-61
2021/11/22 00:56:23;;;;;;;34.07;23.37;;;;;;;7.52;100.00;101099.69;5117163;27;20693;-61
2021/11/22 00:58:49;;;;;;;31.30;22.40;;;;;;;7.50;100.00;101097.16;5115378;27;20444;-59
2021/11/22 01:01:14;;;;;;;34.63;22.80;;;;;;;7.42;100.00;101090.59;5134562;27;20722;-66
2021/11/22 01:03:40;;;;;;;33.80;21.30;;;;;;;7.36;100.00;101086.50;5143964;27;20656;-65
2021/11/22 01:06:05;;;;;;;37.40;22.80;;;;;;;7.31;100.00;101091.09;5132849;27;20263;-62
2021/11/22 01:08:31;;;;;;;32.10;21.83;;;;;;;7.32;100.00;101078.88;5144819;27;20687;-62
2021/11/22 01:10:56;;;;;;;33.10;21.40;;;;;;;7.35;100.00;101089.19;5129908;27;20242;-60
2021/11/22 01:13:22;;;;;;;35.90;23.03;;;;;;;7.32;100.00;101079.72;5129198;27;21057;-64
2021/11/22 01:15:48;;;;;;;36.03;23.23;;;;;;;7.36;100.00;101081.28;5132032;27;20284;-62
2021/11/22 01:18:13;;;;;;;36.07;24.70;;;;;;;7.45;100.00;101085.22;5150599;27;20804;-62
2021/11/22 01:20:41;;;;;;;38.70;27.37;;;;;;;7.46;100.00;101079.06;5135853;27;20174;-62
2021/11/22 01:23:13;;;;;;;40.40;28.10;;;;;;;7.59;100.00;101077.53;5128962;27;20949;-62
2021/11/22 01:25:41;;;;;;;35.43;25.97;;;;;;;7.61;100.00;101080.91;5129850;27;20440;-63
2021/11/22 01:28:07;;;;;;;32.23;22.77;;;;;;;7.61;100.00;101069.63;5149224;27;20398;-62
2021/11/22 01:30:33;;;;;;;35.43;23.63;;;;;;;7.59;100.00;101076.69;5133125;27;20456;-64
2021/11/22 01:32:58;;;;;;;33.17;23.90;;;;;;;7.56;100.00;101074.22;5131016;27;20871;-62
2021/11/22 01:35:24;;;;;;;33.70;21.83;;;;;;;7.49;100.00;101079.78;5136593;27;20933;-61
2021/11/22 01:37:51;;;;;;;38.17;21.60;;;;;;;7.57;100.00;101075.94;5126179;27;20185;-64
2021/11/22 01:40:21;;;;;;;40.63;22.27;;;;;;;7.62;100.00;101076.53;5131909;27;20602;-63
2021/11/22 01:42:48;;;;;;;33.80;21.10;;;;;;;7.59;100.00;101067.09;5131220;27;20400;-64
2021/11/22 01:45:15;;;;;;;35.90;21.67;;;;;;;7.51;100.00;101072.69;5131428;27;20507;-63
2021/11/22 01:47:42;;;;;;;34.40;22.60;;;;;;;7.53;100.00;101071.75;5131543;28;20408;-61
2021/11/22 01:50:10;;;;;;;33.50;22.87;;;;;;;7.43;100.00;101074.00;5131432;28;20416;-65
2021/11/22 01:52:39;;;;;;;34.27;24.97;;;;;;;7.41;100.00;101079.28;5131679;28;20566;-61
2021/11/22 01:55:06;;;;;;;31.87;23.07;;;;;;;7.30;100.00;101072.88;5114786;28;20427;-64
2021/11/22 01:57:32;;;;;;;34.47;22.90;;;;;;;7.23;100.00;101065.31;5131660;28;20454;-64
2021/11/22 01:59:58;;;;;;;33.67;22.70;;;;;;;7.25;100.00;101078.31;5131546;28;20404;-62
2021/11/22 02:02:23;;;;;;;34.80;23.27;;;;;;;7.21;100.00;101074.16;5131927;28;20195;-61
2021/11/22 02:04:49;;;;;;;29.17;20.80;;;;;;;7.18;100.00;101074.31;5131335;28;20183;-63
2021/11/22 02:07:14;;;;;;;34.40;22.70;;;;;;;7.15;100.00;101075.28;5130644;28;20618;-64
2021/11/22 02:09:40;;;;;;;32.77;22.40;;;;;;;7.02;100.00;101070.72;5131877;28;20181;-63
2021/11/22 02:12:06;;;;;;;32.53;21.50;;;;;;;7.13;100.00;101066.69;5131320;28;20646;-63
2021/11/22 02:14:32;;;;;;;33.50;21.60;;;;;;;7.05;100.00;101068.81;5123446;27;20180;-63
2021/11/22 02:16:58;;;;;;;32.23;21.37;;;;;;;7.06;100.00;101069.66;5134910;27;20447;-62
2021/11/22 02:19:24;;;;;;;30.77;21.20;;;;;;;7.10;100.00;101076.41;5135428;27;20479;-62
2021/11/22 02:21:49;;;;;;;32.73;23.27;;;;;;;7.08;100.00;101073.88;5135180;27;20253;-63
2021/11/22 02:24:15;;;;;;;32.50;21.60;;;;;;;7.07;100.00;101066.13;5134558;27;20563;-60
2021/11/22 02:26:40;;;;;;;31.30;21.77;;;;;;;7.04;100.00;101061.06;5135155;27;20198;-63
2021/11/22 02:29:06;;;;;;;30.43;20.90;;;;;;;7.04;100.00;101061.91;5135078;27;20175;-64
2021/11/22 02:31:32;;;;;;;31.60;21.80;;;;;;;6.99;100.00;101065.63;5134608;27;20554;-62
2021/11/22 02:33:58;;;;;;;30.90;20.47;;;;;;;6.99;100.00;101068.25;5135229;27;20158;-63
2021/11/22 02:36:24;;;;;;;37.00;21.23;;;;;;;7.08;100.00;101059.97;5135010;27;20832;-61
2021/11/22 02:38:50;;;;;;;36.13;21.33;;;;;;;7.15;100.00;101067.44;5134186;27;20446;-65
2021/11/22 02:41:16;;;;;;;42.63;23.70;;;;;;;6.97;100.00;101068.31;5135159;27;20486;-62
2021/11/22 02:43:45;;;;;;;30.43;21.43;;;;;;;6.78;100.00;101057.88;5134376;27;20158;-63
2021/11/22 02:46:11;;;;;;;36.77;22.80;;;;;;;6.66;100.00;101061.06;5137035;27;20403;-61
2021/11/22 02:48:37;;;;;;;34.77;21.43;;;;;;;6.57;100.00;101066.66;5135340;27;20408;-63
2021/11/22 02:51:07;;;;;;;34.90;22.53;;;;;;;6.56;100.00;101063.22;5155953;27;20409;-62
2021/11/22 02:53:33;;;;;;;32.23;21.27;;;;;;;6.70;100.00;101065.22;5136600;27;20410;-64
2021/11/22 02:56:06;;;;;;;36.50;21.30;;;;;;;6.81;100.00;101062.97;5134812;27;20451;-63
2021/11/22 02:58:33;;;;;;;37.77;23.93;;;;;;;6.74;100.00;101065.94;5134363;27;20186;-64
2021/11/22 03:00:59;;;;;;;31.57;20.53;;;;;;;6.83;100.00;101065.50;5134876;27;20489;-64
2021/11/22 03:03:30;;;;;;;35.97;23.07;;;;;;;6.69;100.00;101066.13;5134329;27;20502;-65
2021/11/22 03:06:08;;;;;;;36.30;22.30;;;;;;;6.55;100.00;101065.91;5134334;27;20407;-64
2021/11/22 03:08:35;;;;;;;45.07;26.00;;;;;;;6.54;100.00;101067.66;5134169;27;20482;-65
2021/11/22 03:11:01;;;;;;;49.43;29.10;;;;;;;6.51;100.00;101074.81;5134100;27;20404;-64
2021/11/22 03:13:27;;;;;;;45.50;28.03;;;;;;;6.45;100.00;101069.84;5133679;27;20419;-66
2021/11/22 03:15:52;;;;;;;39.33;26.13;;;;;;;6.45;100.00;101075.06;5135056;27;20238;-63
2021/11/22 03:18:18;;;;;;;41.07;24.90;;;;;;;6.37;100.00;101078.84;5135016;27;20173;-65
2021/11/22 03:20:44;;;;;;;39.27;23.20;;;;;;;6.39;100.00;101079.63;5134228;27;20181;-65
2021/11/22 03:23:09;;;;;;;36.97;22.20;;;;;;;6.40;100.00;101083.09;5133121;27;20191;-60
2021/11/22 03:25:35;;;;;;;38.23;24.17;;;;;;;6.34;100.00;101089.41;5133938;27;20194;-62
2021/11/22 03:28:00;;;;;;;35.43;21.70;;;;;;;6.36;100.00;101092.81;5133177;27;20618;-65
2021/11/22 03:30:26;;;;;;;35.60;24.00;;;;;;;6.36;100.00;101094.59;5134341;27;20221;-64
2021/11/22 03:32:51;;;;;;;35.30;22.10;;;;;;;6.29;100.00;101094.00;5134266;27;20170;-65
2021/11/22 03:35:17;;;;;;;33.93;19.10;;;;;;;6.32;100.00;101095.63;5133582;27;20166;-65
2021/11/22 03:37:43;;;;;;;36.80;24.50;;;;;;;6.28;100.00;101091.47;5133526;27;20185;-64
2021/11/22 03:40:10;;;;;;;42.07;22.90;;;;;;;6.27;100.00;101092.34;5133441;27;20170;-64
2021/11/22 03:42:40;;;;;;;35.73;22.53;;;;;;;6.22;100.00;101087.34;5132794;27;20533;-64
2021/11/22 03:45:09;;;;;;;32.33;20.07;;;;;;;6.25;100.00;101088.97;5133105;27;20411;-64
2021/11/22 03:47:35;;;;;;;30.20;19.37;;;;;;;6.18;100.00;101090.16;5133477;27;20408;-64
2021/11/22 03:50:02;;;;;;;37.87;22.97;;;;;;;6.09;100.00;101099.22;5133578;27;20415;-65
2021/11/22 03:52:27;;;;;;;34.27;21.80;;;;;;;6.02;100.00;101096.00;5133270;27;20412;-61
2021/11/22 03:54:53;;;;;;;32.40;22.50;;;;;;;5.91;100.00;101102.59;5133769;27;20492;-62
2021/11/22 03:57:18;;;;;;;34.00;22.80;;;;;;;5.98;100.00;101104.91;5132812;27;20221;-64
2021/11/22 03:59:44;;;;;;;37.03;25.13;;;;;;;5.92;100.00;101107.75;5133686;27;20537;-65
2021/11/22 04:02:10;;;;;;;40.50;25.60;;;;;;;5.89;100.00;101099.16;5134592;27;20194;-65
2021/11/22 04:04:35;;;;;;;48.97;30.70;;;;;;;5.90;100.00;101103.50;5133575;27;20480;-66
2021/11/22 04:07:01;;;;;;;42.13;27.53;;;;;;;5.95;100.00;101101.56;5133413;27;20777;-64
2021/11/22 04:09:26;;;;;;;39.87;22.77;;;;;;;5.89;100.00;101088.72;5133329;27;20201;-63
2021/11/22 04:11:52;;;;;;;43.80;25.93;;;;;;;5.85;100.00;101091.47;5114781;27;20178;-64
2021/11/22 04:14:17;;;;;;;36.70;23.40;;;;;;;5.83;100.00;101097.69;5133337;27;20166;-63
2021/11/22 04:16:43;;;;;;;44.37;26.37;;;;;;;5.76;100.00;101098.84;5133463;27;20232;-62
2021/11/22 04:19:09;;;;;;;44.73;26.93;;;;;;;5.71;100.00;101108.59;5133020;27;20550;-63
2021/11/22 04:21:34;;;;;;;41.47;25.90;;;;;;;5.69;100.00;101105.22;5132717;27;20170;-63
2021/11/22 04:24:00;;;;;;;40.83;25.17;;;;;;;5.67;100.00;101107.88;5132802;27;20486;-64
2021/11/22 04:26:26;;;;;;;44.10;26.40;;;;;;;5.62;100.00;101104.59;5133402;27;20572;-62
2021/11/22 04:28:51;;;;;;;40.77;24.47;;;;;;;5.55;100.00;101100.56;5133493;27;20163;-61
2021/11/22 04:31:17;;;;;;;38.03;25.67;;;;;;;5.50;100.00;101112.91;5132578;27;20241;-62
2021/11/22 04:33:43;;;;;;;39.53;25.00;;;;;;;5.48;100.00;101107.75;5132290;27;20649;-63
2021/11/22 04:36:10;;;;;;;37.77;26.70;;;;;;;5.45;100.00;101118.31;5132744;27;20293;-62
2021/11/22 04:38:36;;;;;;;38.57;24.57;;;;;;;5.45;100.00;101112.25;5132366;27;20190;-63
2021/11/22 04:41:02;;;;;;;39.50;23.43;;;;;;;5.52;100.00;101111.97;5132825;27;20789;-62
2021/11/22 04:43:28;;;;;;;37.50;20.77;;;;;;;5.53;100.00;101107.59;5132705;27;20499;-62
2021/11/22 04:45:54;;;;;;;35.83;23.60;;;;;;;5.55;100.00;101116.19;5133035;27;20522;-60
2021/11/22 04:48:19;;;;;;;27.67;18.70;;;;;;;5.59;100.00;101115.13;5132167;27;20169;-61
2021/11/22 04:50:45;;;;;;;34.97;24.70;;;;;;;5.53;100.00;101108.44;5132632;27;20498;-63
2021/11/22 04:53:11;;;;;;;37.30;24.83;;;;;;;5.55;100.00;101122.25;5132440;27;20175;-62
2021/11/22 04:55:36;;;;;;;34.03;23.97;;;;;;;5.55;100.00;101124.84;5132482;27;20146;-61
2021/11/22 04:58:03;;;;;;;43.17;27.20;;;;;;;5.50;100.00;101124.19;5131836;27;20174;-63
2021/11/22 05:00:29;;;;;;;41.43;28.37;;;;;;;5.52;100.00;101122.38;5132579;27;20219;-63
2021/11/22 05:02:55;;;;;;;53.37;32.70;;;;;;;5.48;100.00;101130.38;5137908;27;20767;-60
2021/11/22 05:05:21;;;;;;;51.43;34.27;;;;;;;5.48;100.00;101130.38;5132132;27;20202;-60
2021/11/22 05:07:47;;;;;;;56.30;35.27;;;;;;;5.44;100.00;101134.88;5131724;27;20245;-62
2021/11/22 05:10:13;;;;;;;56.77;37.37;;;;;;;5.41;100.00;101136.72;5131823;27;20400;-62
2021/11/22 05:12:39;;;;;;;74.00;49.80;;;;;;;5.47;100.00;101136.50;5132516;27;20435;-62
2021/11/22 05:15:05;;;;;;;86.17;58.00;;;;;;;5.44;100.00;101134.88;5131168;27;20486;-63
2021/11/22 05:17:32;;;;;;;113.00;79.60;;;;;;;5.46;100.00;101140.84;5129766;27;20688;-61
2021/11/22 05:19:57;;;;;;;98.53;68.47;;;;;;;5.48;100.00;101149.44;5132145;27;20418;-63
2021/11/22 05:22:24;;;;;;;84.37;58.43;;;;;;;5.59;100.00;101159.44;5131835;27;20400;-63
2021/11/22 05:24:51;;;;;;;70.27;48.43;;;;;;;5.63;100.00;101160.19;5131782;27;20162;-63
2021/11/22 05:27:21;;;;;;;61.23;36.60;;;;;;;5.74;100.00;101160.59;5131799;27;20428;-61
2021/11/22 05:29:47;;;;;;;50.20;32.40;;;;;;;5.74;100.00;101163.19;5130862;27;20452;-65
2021/11/22 05:32:17;;;;;;;47.87;30.33;;;;;;;5.74;100.00;101164.09;5131590;27;20415;-64
2021/11/22 05:34:43;;;;;;;38.07;25.97;;;;;;;5.76;100.00;101169.22;5131773;27;20403;-63
2021/11/22 05:37:09;;;;;;;40.57;27.20;;;;;;;5.73;100.00;101170.19;5131239;27;20436;-61
2021/11/22 05:39:35;;;;;;;39.40;26.33;;;;;;;5.69;100.00;101173.84;5131161;27;20948;-65
2021/11/22 05:42:00;;;;;;;43.97;26.30;;;;;;;5.69;100.00;101171.22;5131121;27;20169;-64
2021/11/22 05:44:26;;;;;;;46.13;26.60;;;;;;;5.75;100.00;101178.81;5131081;27;20150;-65
2021/11/22 05:46:51;;;;;;;45.30;26.43;;;;;;;5.71;100.00;101177.22;5131139;27;20610;-65
2021/11/22 05:49:17;;;;;;;42.17;26.17;;;;;;;5.70;100.00;101182.50;5130284;27;20147;-63
2021/11/22 05:51:44;;;;;;;45.90;27.03;;;;;;;5.67;100.00;101183.47;5130144;28;20223;-62
2021/11/22 05:54:11;;;;;;;43.57;28.10;;;;;;;5.70;100.00;101185.09;5135145;27;20343;-60
2021/11/22 05:56:37;;;;;;;55.30;27.67;;;;;;;5.73;100.00;101184.97;5130814;28;20463;-64
2021/11/22 05:59:03;;;;;;;47.63;29.50;;;;;;;5.76;100.00;101192.69;5131010;28;20392;-62
2021/11/22 06:01:29;;;;;;;46.17;27.27;;;;;;;5.84;100.00;101185.41;5129952;28;20415;-63
2021/11/22 06:03:54;;;;;;;40.13;25.07;;;;;;;5.90;100.00;101193.00;5128944;28;20422;-62
2021/11/22 06:06:20;;;;;;;46.30;30.20;;;;;;;5.94;100.00;101191.13;5129947;27;20535;-61
2021/11/22 06:08:45;;;;;;;46.47;30.83;;;;;;;6.01;100.00;101192.56;5131277;28;20646;-62
2021/11/22 06:11:11;;;;;;;45.00;31.10;;;;;;;6.05;100.00;101197.63;5130716;28;20170;-62
2021/11/22 06:13:36;;;;;;;58.33;27.83;;;;;;;6.14;100.00;101192.94;5131132;28;20151;-60
2021/11/22 06:16:02;;;;;;;48.30;31.50;;;;;;;6.20;100.00;101198.75;5134463;27;20178;-64
2021/11/22 06:18:28;;;;;;;50.13;31.80;;;;;;;6.27;100.00;101189.75;5149693;27;20166;-64
2021/11/22 06:20:53;;;;;;;59.30;31.87;;;;;;;6.33;100.00;101191.25;5130938;28;20177;-61
2021/11/22 06:23:18;;;;;;;55.20;32.80;;;;;;;6.40;100.00;101197.91;5130388;28;20166;-63
2021/11/22 06:25:44;;;;;;;55.43;32.03;;;;;;;6.44;100.00;101194.28;5130256;27;20186;-61
2021/11/22 06:28:10;;;;;;;51.00;30.80;;;;;;;6.50;100.00;101207.06;5130205;28;20616;-64
2021/11/22 06:30:36;;;;;;;54.73;31.60;;;;;;;6.60;100.00;101204.91;5129981;28;20220;-64
2021/11/22 06:33:01;;;;;;;50.80;31.70;;;;;;;6.70;100.00;101207.97;5140554;27;20154;-65
2021/11/22 06:35:27;;;;;;;56.03;30.80;;;;;;;6.80;100.00;101204.91;5129915;27;20396;-63
2021/11/22 06:37:52;;;;;;;50.30;32.10;;;;;;;6.87;100.00;101198.47;5111555;28;20191;-65
2021/11/22 06:40:19;;;;;;;63.90;34.60;;;;;;;6.95;100.00;101201.63;5130049;28;20234;-66
2021/11/22 06:42:45;;;;;;;66.53;39.90;;;;;;;7.05;100.00;101206.44;5130555;28;20178;-66
2021/11/22 06:45:11;;;;;;;58.77;39.53;;;;;;;7.16;100.00;101214.63;5129378;28;20411;-66
2021/11/22 06:47:37;;;;;;;60.20;39.97;;;;;;;7.22;100.00;101217.81;5130416;28;20444;-67
2021/11/22 06:50:04;;;;;;;71.27;39.80;;;;;;;7.28;100.00;101221.06;5130861;28;20150;-66
2021/11/22 06:52:30;;;;;;;68.17;41.50;;;;;;;7.36;100.00;101214.56;5130496;28;20651;-63
2021/11/22 06:54:57;;;;;;;67.23;39.77;;;;;;;7.42;100.00;101218.69;5141799;27;20422;-64
2021/11/22 06:57:23;;;;;;;66.83;43.03;;;;;;;7.50;100.00;101220.03;5132093;27;20557;-64
2021/11/22 06:59:49;;;;;;;76.50;44.37;;;;;;;7.62;100.00;101229.03;5131121;27;20462;-63
2021/11/22 07:02:16;;;;;;;69.93;37.77;;;;;;;7.77;100.00;101217.84;5131773;27;20440;-68
2021/11/22 07:04:44;;;;;;;63.67;39.30;;;;;;;7.92;100.00;101220.66;5133914;27;20388;-69
2021/11/22 07:07:11;;;;;;;73.10;42.20;;;;;;;8.03;100.00;101219.25;5133562;27;20412;-68
2021/11/22 07:09:37;;;;;;;114.43;46.33;;;;;;;8.14;100.00;101223.94;5133930;27;20393;-65
2021/11/22 07:12:04;;;;;;;63.73;40.90;;;;;;;8.27;100.00;101221.59;5133493;27;20431;-65
2021/11/22 07:14:30;;;;;;;68.73;42.23;;;;;;;8.34;100.00;101225.59;5133571;27;20206;-70
2021/11/22 07:16:56;;;;;;;85.23;45.70;;;;;;;8.44;100.00;101220.78;5132930;27;20443;-70
2021/11/22 07:19:22;;;;;;;82.93;51.03;;;;;;;8.51;100.00;101216.91;5133655;27;20415;-69
2021/11/22 07:21:47;;;;;;;72.00;47.60;;;;;;;8.64;100.00;101222.41;5133651;27;20154;-68
2021/11/22 07:24:13;;;;;;;87.33;52.27;;;;;;;8.75;100.00;101213.03;5118823;27;20642;-60
2021/11/22 07:26:39;;;;;;;78.03;50.93;;;;;;;8.77;100.00;101215.59;5142888;27;20204;-66
2021/11/22 07:29:05;;;;;;;73.07;46.00;;;;;;;8.84;100.00;101225.69;5153937;27;20426;-66
2021/11/22 07:31:31;;;;;;;71.30;47.30;;;;;;;8.88;100.00;101224.59;5139374;27;20202;-65
2021/11/22 07:33:57;;;;;;;68.27;44.20;;;;;;;8.98;100.00;101232.81;5133014;27;20411;-65
2021/11/22 07:36:22;;;;;;;68.80;45.90;;;;;;;9.14;100.00;101224.97;5132372;27;20448;-70
2021/11/22 07:38:48;;;;;;;68.80;42.53;;;;;;;9.18;100.00;101222.13;5132961;27;20161;-66
2021/11/22 07:41:14;;;;;;;68.27;42.63;;;;;;;9.25;100.00;101217.41;5132701;27;20206;-69
2021/11/22 07:43:39;;;;;;;61.87;41.90;;;;;;;9.29;100.00;101218.06;5133416;27;20159;-67
2021/11/22 07:46:05;;;;;;;56.97;40.80;;;;;;;9.29;100.00;101218.94;5132537;27;20171;-66
2021/11/22 07:48:31;;;;;;;66.83;42.63;;;;;;;9.36;100.00;101220.28;5132944;27;20526;-71
2021/11/22 07:50:58;;;;;;;70.43;44.00;;;;;;;9.47;100.00;101213.63;5133059;27;20167;-68
2021/11/22 07:53:23;;;;;;;78.87;42.90;;;;;;;9.55;100.00;101220.16;5132727;27;20219;-63
2021/11/22 07:55:49;;;;;;;71.80;45.13;;;;;;;9.66;100.00;101216.94;5132661;27;20408;-66
2021/11/22 07:58:15;;;;;;;65.40;43.90;;;;;;;9.73;100.00;101219.13;5131930;27;20154;-72
2021/11/22 08:00:41;;;;;;;65.23;41.50;;;;;;;9.83;100.00;101223.88;5132865;27;20157;-70
2021/11/22 08:03:07;;;;;;;61.40;42.50;;;;;;;9.82;100.00;101219.53;5132392;27;20408;-71
2021/11/22 08:05:33;;;;;;;61.40;43.53;;;;;;;9.88;100.00;101217.44;5139705;27;20158;-70
2021/11/22 08:07:59;;;;;;;62.07;43.20;;;;;;;9.99;100.00;101219.47;5132703;27;20162;-68
2021/11/22 08:10:31;;;;;;;56.17;40.00;;;;;;;10.14;100.00;101231.72;5151514;27;20493;-62
2021/11/22 08:13:00;;;;;;;53.13;38.60;;;;;;;10.27;100.00;101226.63;5131500;27;20808;-64
2021/11/22 08:15:28;;;;;;;55.30;38.03;;;;;;;10.32;100.00;101221.13;5131964;27;20423;-59
2021/11/22 08:17:54;;;;;;;52.47;36.57;;;;;;;10.40;100.00;101222.34;5132116;27;20435;-58
2021/11/22 08:20:22;;;;;;;50.87;32.23;;;;;;;10.52;100.00;101220.81;5132163;27;20420;-71
2021/11/22 08:22:48;;;;;;;50.93;32.63;;;;;;;10.63;100.00;101223.63;5145439;27;20411;-69
2021/11/22 08:25:16;;;;;;;49.93;32.70;;;;;;;10.66;100.00;101215.59;5131587;27;20423;-69
2021/11/22 08:27:42;;;;;;;50.57;35.70;;;;;;;10.74;100.00;101223.84;5131689;27;20413;-58
2021/11/22 08:30:11;;;;;;;48.40;35.80;;;;;;;10.88;100.00;101223.00;5131856;27;20455;-70
2021/11/22 08:32:39;;;;;;;53.27;35.30;;;;;;;10.96;100.00;101217.31;5132992;27;20453;-66
2021/11/22 08:35:06;;;;;;;51.20;33.73;;;;;;;11.03;100.00;101221.22;5131552;27;20431;-60
2021/11/22 08:37:32;;;;;;;53.00;35.27;;;;;;;11.20;100.00;101213.19;5131755;27;20516;-58
2021/11/22 08:39:58;;;;;;;54.83;37.83;;;;;;;11.47;100.00;101217.66;5132624;27;20400;-59
2021/11/22 08:42:25;;;;;;;53.63;37.03;;;;;;;11.72;100.00;101224.84;5131546;27;20561;-58
2021/11/22 08:44:52;;;;;;;61.90;41.37;;;;;;;11.78;100.00;101217.38;5131541;27;20404;-58
2021/11/22 08:47:17;;;;;;;57.47;40.80;;;;;;;11.90;100.00;101215.78;5135236;27;20408;-59
2021/11/22 08:49:43;;;;;;;58.47;40.70;;;;;;;12.09;100.00;101212.78;5149843;27;20399;-57
2021/11/22 08:52:10;;;;;;;53.70;27.93;;;;;;;12.09;100.00;101215.44;5145150;27;20583;-58
2021/11/22 08:54:36;;;;;;;45.10;29.90;;;;;;;12.03;100.00;101213.22;5131452;27;20189;-57
2021/11/22 08:57:02;;;;;;;56.77;35.23;;;;;;;12.13;100.00;101211.66;5131362;27;20970;-58
2021/11/22 08:59:28;;;;;;;57.90;38.40;;;;;;;12.26;100.00;101207.28;5131491;27;20161;-57
2021/11/22 09:01:53;;;;;;;48.30;33.03;;;;;;;12.40;100.00;101206.38;5131369;27;20404;-57
2021/11/22 09:04:19;;;;;;;49.50;33.70;;;;;;;12.49;100.00;101203.94;5131399;27;20158;-59
2021/11/22 09:06:44;;;;;;;47.07;32.70;;;;;;;12.64;100.00;101201.22;5130872;27;20175;-58
2021/11/22 09:09:11;;;;;;;51.63;31.97;;;;;;;12.76;100.00;101197.72;5131075;27;20162;-58
2021/11/22 09:11:38;;;;;;;43.70;29.10;;;;;;;13.06;100.00;101187.69;5131362;27;20174;-57
2021/11/22 09:14:04;;;;;;;36.90;24.20;;;;;;;13.30;100.00;101192.25;5112944;27;20422;-59
2021/11/22 09:16:30;;;;;;;35.27;28.27;;;;;;;13.31;100.00;101189.50;5130366;27;20450;-58
2021/11/22 09:18:58;;;;;;;30.30;19.57;;;;;;;13.38;100.00;101186.44;5131069;27;20824;-58
2021/11/22 09:21:24;;;;;;;37.70;25.67;;;;;;;14.08;100.00;101179.50;5112797;27;21196;-58
2021/11/22 09:23:50;;;;;;;31.90;21.93;;;;;;;14.90;100.00;101176.81;5131368;27;20415;-59
2021/11/22 09:26:17;;;;;;;37.50;22.70;;;;;;;16.32;100.00;101171.47;5131192;27;20186;-58
2021/11/22 09:28:44;;;;;;;34.90;22.00;;;;;;;17.03;100.00;101157.47;5130861;27;20379;-59
2021/11/22 09:31:10;;;;;;;33.13;20.17;;;;;;;17.90;100.00;101152.38;5130757;27;20448;-58
2021/11/22 09:33:35;;;;;;;27.67;19.57;;;;;;;17.53;100.00;101160.97;5130581;27;20412;-58
2021/11/22 09:36:01;;;;;;;49.33;21.03;;;;;;;18.18;100.00;101156.84;5130173;27;20162;-58
2021/11/22 09:38:27;;;;;;;27.23;20.73;;;;;;;19.20;100.00;101150.84;5128795;27;20170;-58
2021/11/22 09:40:52;;;;;;;28.13;18.70;;;;;;;19.15;100.00;101147.78;5128996;27;20215;-58
2021/11/22 09:43:18;;;;;;;25.17;19.50;;;;;;;19.66;100.00;101153.38;5130353;27;20887;-58
2021/11/22 09:45:45;;;;;;;28.83;18.47;;;;;;;19.22;100.00;101141.69;5129984;27;20400;-58
2021/11/22 09:48:11;;;;;;;30.40;19.40;;;;;;;19.20;100.00;101135.69;5129836;27;20181;-59
2021/11/22 09:50:37;;;;;;;31.03;17.77;;;;;;;18.70;100.00;101140.53;5130720;28;20919;-59
2021/11/22 09:53:04;;;;;;;30.83;19.13;;;;;;;18.87;100.00;101134.44;5130950;28;20163;-63
2021/11/22 09:55:31;;;;;;;27.80;17.17;;;;;;;18.54;100.00;101133.13;5133791;27;20407;-59
2021/11/22 09:58:02;;;;;;;30.77;16.57;;;;;;;18.56;100.00;101126.66;5143258;27;20936;-58
2021/11/22 10:00:38;;;;;;;25.50;14.30;;;;;;;18.25;100.00;101134.00;5151519;27;20923;-57
2021/11/22 10:03:07;;;;;;;20.63;15.13;;;;;;;17.98;100.00;101136.56;5131947;27;20403;-59
2021/11/22 10:05:35;;;;;;;21.40;13.23;;;;;;;18.02;100.00;101133.47;5129227;28;20471;-58
2021/11/22 10:08:04;;;;;;;21.37;14.20;;;;;;;18.82;100.00;101131.38;5128492;27;20464;-58
2021/11/22 10:10:32;;;;;;;25.57;15.87;;;;;;;19.34;100.00;101121.84;5130073;28;20925;-66
2021/11/22 10:12:59;;;;;;;19.80;13.63;;;;;;;20.82;100.00;101108.72;5130459;28;20422;-59
2021/11/22 10:15:25;;;;;;;21.37;14.03;;;;;;;21.63;100.00;101104.66;5129028;28;20877;-59
2021/11/22 10:17:51;;;;;;;19.17;13.30;;;;;;;21.63;95.86;101101.97;5129926;27;20443;-58
2021/11/22 10:20:19;;;;;;;23.27;13.20;;;;;;;21.66;100.00;101107.81;5129483;28;20661;-59
2021/11/22 10:22:52;;;;;;;19.40;12.43;;;;;;;22.89;84.23;101100.50;5129594;28;20169;-71
2021/11/22 10:25:21;;;;;;;15.30;11.10;;;;;;;22.79;79.02;101107.88;5136799;27;20965;-65
2021/11/22 10:27:49;;;;;;;15.70;11.43;;;;;;;22.12;82.33;101100.16;5132023;27;20400;-59
2021/11/22 10:30:27;;;;;;;18.10;12.40;;;;;;;22.09;82.08;101104.03;5129091;28;20452;-64
2021/11/22 10:32:57;;;;;;;15.70;11.70;;;;;;;22.55;80.57;101098.09;5129981;28;20417;-61
2021/11/22 10:35:26;;;;;;;13.00;10.37;;;;;;;22.95;74.16;101091.75;5130503;27;20887;-59
2021/11/22 10:38:01;;;;;;;15.83;11.17;;;;;;;21.60;82.32;101103.97;5133346;27;20883;-59
2021/11/22 10:40:29;;;;;;;17.83;12.53;;;;;;;21.95;83.43;101099.31;5133885;27;20480;-59
2021/11/22 10:42:56;;;;;;;16.60;9.83;;;;;;;21.34;83.05;101100.59;5133559;27;20444;-59
2021/11/22 10:45:30;;;;;;;15.17;11.00;;;;;;;20.95;89.00;101092.25;5133585;27;20836;-59
2021/11/22 10:48:11;;;;;;;14.40;11.00;;;;;;;21.64;84.59;101088.44;5132651;27;20411;-72
2021/11/22 10:50:37;;;;;;;15.13;10.90;;;;;;;22.00;79.51;101086.28;5128567;27;20411;-60
2021/11/22 10:53:04;;;;;;;15.10;10.20;;;;;;;22.33;76.15;101087.09;5134831;27;20388;-58
2021/11/22 10:55:46;;;;;;;12.50;9.50;;;;;;;22.13;77.07;101088.44;5132435;27;20465;-58
2021/11/22 10:58:40;;;;;;;10.80;7.70;;;;;;;23.13;68.23;101078.97;5132698;27;20415;-72
2021/11/22 11:01:18;;;;;;;10.40;8.10;;;;;;;22.62;69.38;101097.22;5113620;27;20553;-72
2021/11/22 11:03:51;;;;;;;11.50;8.70;;;;;;;21.93;72.25;101092.47;5131911;27;20407;-58